createdAt,value
2018-12-10T00:00:23.859Z,99.99
2018-12-10T00:01:23.884Z,99.99
2018-12-10T00:02:23.914Z,99.99
2018-12-10T00:03:23.940Z,99.99
2018-12-10T00:04:23.968Z,99.99
2018-12-10T00:05:23.994Z,99.99
2018-12-10T00:06:24.020Z,99.99
2018-12-10T00:07:24.049Z,99.99
2018-12-10T00:08:24.077Z,99.99
2018-12-10T00:09:24.103Z,99.99
2018-12-10T00:10:24.129Z,99.99
2018-12-10T00:11:24.156Z,99.99
2018-12-10T00:12:24.185Z,99.99
2018-12-10T00:13:24.210Z,99.99
2018-12-10T00:14:24.237Z,99.99
2018-12-10T00:15:24.265Z,99.99
2018-12-10T00:16:24.292Z,99.99
2018-12-10T00:17:24.319Z,99.99
2018-12-10T00:18:24.346Z,99.99
2018-12-10T00:19:24.438Z,99.99
2018-12-10T00:20:24.401Z,99.99
2018-12-10T00:21:24.427Z,99.99
2018-12-10T00:22:24.454Z,99.99
2018-12-10T00:23:24.482Z,99.99
2018-12-10T00:24:24.509Z,99.99
2018-12-10T00:25:24.535Z,99.99
2018-12-10T00:26:24.565Z,99.99
2018-12-10T00:27:24.596Z,99.99
2018-12-10T00:28:24.617Z,99.99
2018-12-10T00:29:24.644Z,99.99
2018-12-10T00:30:24.671Z,99.99
2018-12-10T00:31:24.698Z,99.99
2018-12-10T00:32:24.726Z,99.99
2018-12-10T00:33:24.803Z,99.99
2018-12-10T00:34:24.780Z,99.99
2018-12-10T00:35:24.807Z,99.99
2018-12-10T00:36:24.835Z,99.99
2018-12-10T00:37:24.861Z,99.99
2018-12-10T00:38:24.891Z,99.99
2018-12-10T00:39:24.915Z,99.99
2018-12-10T00:40:24.942Z,99.99
2018-12-10T00:41:24.970Z,99.99
2018-12-10T00:42:24.997Z,99.99
2018-12-10T00:43:25.026Z,99.99
2018-12-10T00:44:25.051Z,99.99
2018-12-10T00:45:25.078Z,99.99
2018-12-10T00:46:25.109Z,99.99
2018-12-10T00:47:25.133Z,99.99
2018-12-10T00:48:25.162Z,99.99
2018-12-10T00:49:25.187Z,99.99
2018-12-10T00:50:25.215Z,99.99
2018-12-10T00:51:25.242Z,99.99
2018-12-10T00:52:25.269Z,99.99
2018-12-10T00:53:25.295Z,99.99
2018-12-10T00:54:25.323Z,99.99
2018-12-10T00:55:25.351Z,99.99
2018-12-10T00:56:25.382Z,99.99
2018-12-10T00:57:25.405Z,99.99
2018-12-10T00:58:25.433Z,99.99
2018-12-10T00:59:25.460Z,99.99
2018-12-10T01:00:25.488Z,99.99
2018-12-10T01:01:25.520Z,99.99
2018-12-10T01:02:25.542Z,99.99
2018-12-10T01:03:25.573Z,99.99
2018-12-10T01:04:25.597Z,99.99
2018-12-10T01:05:25.624Z,99.99
2018-12-10T01:06:25.653Z,99.99
2018-12-10T01:07:25.680Z,99.99
2018-12-10T01:08:25.708Z,99.99
2018-12-10T01:09:25.733Z,99.99
2018-12-10T01:10:25.761Z,99.99
2018-12-10T01:11:25.791Z,99.99
2018-12-10T01:12:25.816Z,99.99
2018-12-10T01:13:25.842Z,99.99
2018-12-10T01:14:25.872Z,99.99
2018-12-10T01:15:25.897Z,99.99
2018-12-10T01:16:25.925Z,99.99
2018-12-10T01:17:25.951Z,99.99
2018-12-10T01:18:26.131Z,99.99
2018-12-10T01:19:26.007Z,99.99
2018-12-10T01:20:26.034Z,99.99
2018-12-10T01:21:26.060Z,99.99
2018-12-10T01:22:26.087Z,99.99
2018-12-10T01:23:26.116Z,99.99
2018-12-10T01:24:26.144Z,99.99
2018-12-10T01:25:26.171Z,99.99
2018-12-10T01:26:26.198Z,99.99
2018-12-10T01:27:26.225Z,99.99
2018-12-10T01:28:26.252Z,99.99
2018-12-10T01:29:26.279Z,99.99
2018-12-10T01:30:26.306Z,99.99
2018-12-10T01:31:26.334Z,99.99
2018-12-10T01:32:26.360Z,99.99
2018-12-10T01:33:26.386Z,99.99
2018-12-10T01:34:26.415Z,99.99
2018-12-10T01:35:26.442Z,99.99
2018-12-10T01:36:26.470Z,99.99
2018-12-10T01:37:26.500Z,99.99
2018-12-10T01:38:26.525Z,99.99
2018-12-10T01:39:26.551Z,99.99
2018-12-10T01:40:26.578Z,99.99
2018-12-10T01:41:26.604Z,99.99
2018-12-10T01:42:26.638Z,99.99
2018-12-10T01:43:26.659Z,99.99
2018-12-10T01:44:26.692Z,99.99
2018-12-10T01:45:26.714Z,99.99
2018-12-10T01:46:26.741Z,99.99
2018-12-10T01:47:26.772Z,99.99
2018-12-10T01:48:26.795Z,99.99
2018-12-10T01:49:26.822Z,99.99
2018-12-10T01:50:26.850Z,99.99
2018-12-10T01:51:26.879Z,99.99
2018-12-10T01:52:26.907Z,99.99
2018-12-10T01:53:26.931Z,99.99
2018-12-10T01:54:26.959Z,99.99
2018-12-10T01:55:26.986Z,99.99
2018-12-10T01:56:27.014Z,99.99
2018-12-10T01:57:27.040Z,99.99
2018-12-10T01:58:27.069Z,99.99
2018-12-10T01:59:27.095Z,99.99
2018-12-10T02:00:27.124Z,99.99
2018-12-10T02:01:27.151Z,99.99
2018-12-10T02:02:27.177Z,99.99
2018-12-10T02:03:27.212Z,99.99
2018-12-10T02:04:27.282Z,99.99
2018-12-10T02:05:27.258Z,99.99
2018-12-10T02:06:27.287Z,99.99
2018-12-10T02:07:27.314Z,99.99
2018-12-10T02:08:27.341Z,99.99
2018-12-10T02:09:27.369Z,99.99
2018-12-10T02:10:27.396Z,99.99
2018-12-10T02:11:27.424Z,99.99
2018-12-10T02:12:27.450Z,99.99
2018-12-10T02:13:27.478Z,99.99
2018-12-10T02:14:27.505Z,99.99
2018-12-10T02:15:27.532Z,99.99
2018-12-10T02:16:27.559Z,99.99
2018-12-10T02:17:27.586Z,99.99
2018-12-10T02:18:27.612Z,99.99
2018-12-10T02:19:27.642Z,99.99
2018-12-10T02:20:27.668Z,99.99
2018-12-10T02:21:27.695Z,99.99
2018-12-10T02:22:27.722Z,99.99
2018-12-10T02:23:27.749Z,99.99
2018-12-10T02:24:27.778Z,99.99
2018-12-10T02:25:27.811Z,99.99
2018-12-10T02:26:27.831Z,99.99
2018-12-10T02:27:27.859Z,99.99
2018-12-10T02:28:27.887Z,99.99
2018-12-10T02:29:27.912Z,99.99
2018-12-10T02:30:27.940Z,99.99
2018-12-10T02:31:27.969Z,99.99
2018-12-10T02:32:27.994Z,99.99
2018-12-10T02:33:28.020Z,99.99
2018-12-10T02:34:28.049Z,99.99
2018-12-10T02:35:28.078Z,99.99
2018-12-10T02:36:28.102Z,99.99
2018-12-10T02:37:28.127Z,99.99
2018-12-10T02:38:28.156Z,99.99
2018-12-10T02:39:28.185Z,99.99
2018-12-10T02:40:28.211Z,99.99
2018-12-10T02:41:28.237Z,99.99
2018-12-10T02:42:28.268Z,99.99
2018-12-10T02:43:28.294Z,99.99
2018-12-10T02:44:28.320Z,99.99
2018-12-10T02:45:28.348Z,99.99
2018-12-10T02:46:28.373Z,99.99
2018-12-10T02:47:28.408Z,99.99
2018-12-10T02:48:28.493Z,99.99
2018-12-10T02:49:28.456Z,99.99
2018-12-10T02:50:28.482Z,99.99
2018-12-10T02:51:28.509Z,99.99
2018-12-10T02:52:28.541Z,99.99
2018-12-10T02:53:28.564Z,99.99
2018-12-10T02:54:28.590Z,99.99
2018-12-10T02:55:28.617Z,99.99
2018-12-10T02:56:28.645Z,99.99
2018-12-10T02:57:28.670Z,99.99
2018-12-10T02:58:28.698Z,99.99
2018-12-10T02:59:28.726Z,99.99
2018-12-10T03:00:28.762Z,99.99
2018-12-10T03:01:28.801Z,99.99
2018-12-10T03:02:28.806Z,99.99
2018-12-10T03:03:28.833Z,99.99
2018-12-10T03:04:28.861Z,99.99
2018-12-10T03:05:28.889Z,99.99
2018-12-10T03:06:28.915Z,99.99
2018-12-10T03:07:28.942Z,99.99
2018-12-10T03:08:28.971Z,99.99
2018-12-10T03:09:28.996Z,99.99
2018-12-10T03:10:29.025Z,99.99
2018-12-10T03:11:29.050Z,99.99
2018-12-10T03:12:29.078Z,99.99
2018-12-10T03:13:29.108Z,99.99
2018-12-10T03:14:29.135Z,99.99
2018-12-10T03:15:29.161Z,99.99
2018-12-10T03:16:29.185Z,99.99
2018-12-10T03:17:29.213Z,99.99
2018-12-10T03:18:29.240Z,99.99
2018-12-10T03:19:29.266Z,99.99
2018-12-10T03:20:29.294Z,99.99
2018-12-10T03:21:29.371Z,99.99
2018-12-10T03:22:29.347Z,99.99
2018-12-10T03:23:29.375Z,99.99
2018-12-10T03:24:29.403Z,99.99
2018-12-10T03:25:29.428Z,99.99
2018-12-10T03:26:29.456Z,99.99
2018-12-10T03:27:29.487Z,99.99
2018-12-10T03:28:29.511Z,99.99
2018-12-10T03:29:29.540Z,99.99
2018-12-10T03:30:29.565Z,99.99
2018-12-10T03:31:29.591Z,99.99
2018-12-10T03:32:29.620Z,99.99
2018-12-10T03:33:29.644Z,99.99
2018-12-10T03:34:29.670Z,99.99
2018-12-10T03:35:29.699Z,99.99
2018-12-10T03:36:29.726Z,99.99
2018-12-10T03:37:29.752Z,99.99
2018-12-10T03:38:29.780Z,99.99
2018-12-10T03:39:29.807Z,99.99
2018-12-10T03:40:29.834Z,99.99
2018-12-10T03:41:29.864Z,99.99
2018-12-10T03:42:29.888Z,99.99
2018-12-10T03:43:29.917Z,99.99
2018-12-10T03:44:29.942Z,99.99
2018-12-10T03:45:29.968Z,99.99
2018-12-10T03:46:29.996Z,99.99
2018-12-10T03:47:30.022Z,99.99
2018-12-10T03:48:30.060Z,99.99
2018-12-10T03:49:30.076Z,99.99
2018-12-10T03:50:30.105Z,99.99
2018-12-10T03:51:30.129Z,99.99
2018-12-10T03:52:30.158Z,99.99
2018-12-10T03:53:30.184Z,99.99
2018-12-10T03:54:30.213Z,99.99
2018-12-10T03:55:30.238Z,99.99
2018-12-10T03:56:30.270Z,99.99
2018-12-10T03:57:30.313Z,99.99
2018-12-10T03:58:30.322Z,99.99
2018-12-10T03:59:30.353Z,99.99
2018-12-10T04:00:30.424Z,99.99
2018-12-10T04:01:30.412Z,99.99
2018-12-10T04:02:30.424Z,99.99
2018-12-10T04:03:30.455Z,99.99
2018-12-10T04:04:30.480Z,99.99
2018-12-10T04:05:30.505Z,99.99
2018-12-10T04:06:30.536Z,99.99
2018-12-10T04:07:30.560Z,99.99
2018-12-10T04:08:30.588Z,99.99
2018-12-10T04:09:30.613Z,99.99
2018-12-10T04:10:30.641Z,99.99
2018-12-10T04:11:30.667Z,99.99
2018-12-10T04:12:30.694Z,99.99
2018-12-10T04:13:30.720Z,99.99
2018-12-10T04:14:30.749Z,99.99
2018-12-10T04:15:30.776Z,99.99
2018-12-10T04:16:30.803Z,99.99
2018-12-10T04:17:30.889Z,99.99
2018-12-10T04:18:30.858Z,99.99
2018-12-10T04:19:30.885Z,99.99
2018-12-10T04:20:30.914Z,99.99
2018-12-10T04:21:31.034Z,99.99
2018-12-10T04:22:30.971Z,99.99
2018-12-10T04:23:30.995Z,99.99
2018-12-10T04:24:31.018Z,99.99
2018-12-10T04:25:31.044Z,99.99
2018-12-10T04:26:31.075Z,99.99
2018-12-10T04:27:31.099Z,99.99
2018-12-10T04:28:31.123Z,99.99
2018-12-10T04:29:31.155Z,99.99
2018-12-10T04:30:31.177Z,99.99
2018-12-10T04:31:31.207Z,99.99
2018-12-10T04:32:31.236Z,99.99
2018-12-10T04:33:31.261Z,99.99
2018-12-10T04:34:31.284Z,99.99
2018-12-10T04:35:31.314Z,99.99
2018-12-10T04:36:31.339Z,99.99
2018-12-10T04:37:31.366Z,99.99
2018-12-10T04:38:31.393Z,99.99
2018-12-10T04:39:31.420Z,99.99
2018-12-10T04:40:31.446Z,99.99
2018-12-10T04:41:31.472Z,99.99
2018-12-10T04:42:31.504Z,99.99
2018-12-10T04:43:31.527Z,99.99
2018-12-10T04:44:31.560Z,99.99
2018-12-10T04:45:31.579Z,99.99
2018-12-10T04:46:31.605Z,99.99
2018-12-10T04:47:31.632Z,99.99
2018-12-10T04:48:31.660Z,99.99
2018-12-10T04:49:31.686Z,99.99
2018-12-10T04:50:31.714Z,99.99
2018-12-10T04:51:31.740Z,99.99
2018-12-10T04:52:31.766Z,99.99
2018-12-10T04:53:31.793Z,99.99
2018-12-10T04:54:31.821Z,99.99
2018-12-10T04:55:31.847Z,99.99
2018-12-10T04:56:31.873Z,99.99
2018-12-10T04:57:31.899Z,99.99
2018-12-10T04:58:31.927Z,99.99
2018-12-10T04:59:31.952Z,99.99
2018-12-10T05:00:31.980Z,99.99
2018-12-10T05:01:32.006Z,99.99
2018-12-10T05:02:32.032Z,99.99
2018-12-10T05:03:32.060Z,99.99
2018-12-10T05:04:32.086Z,99.99
2018-12-10T05:05:32.113Z,99.99
2018-12-10T05:06:32.143Z,99.99
2018-12-10T05:07:32.167Z,99.99
2018-12-10T05:08:32.193Z,99.99
2018-12-10T05:09:32.219Z,99.99
2018-12-10T05:10:32.246Z,99.99
2018-12-10T05:11:32.272Z,99.99
2018-12-10T05:12:32.299Z,99.99
2018-12-10T05:13:32.327Z,99.99
2018-12-10T05:14:32.353Z,99.99
2018-12-10T05:15:32.380Z,99.99
2018-12-10T05:16:32.406Z,99.99
2018-12-10T05:17:32.432Z,99.99
2018-12-10T05:18:32.458Z,99.99
2018-12-10T05:19:32.486Z,99.99
2018-12-10T05:20:32.512Z,99.99
2018-12-10T05:21:32.539Z,99.99
2018-12-10T05:22:32.567Z,99.99
2018-12-10T05:23:32.594Z,99.99
2018-12-10T05:24:32.619Z,99.99
2018-12-10T05:25:32.646Z,99.99
2018-12-10T05:26:32.673Z,99.99
2018-12-10T05:27:32.699Z,99.99
2018-12-10T05:28:32.727Z,99.99
2018-12-10T05:29:32.750Z,99.99
2018-12-10T05:30:32.778Z,99.99
2018-12-10T05:31:32.805Z,99.99
2018-12-10T05:32:32.831Z,99.99
2018-12-10T05:33:32.857Z,99.99
2018-12-10T05:34:32.885Z,99.99
2018-12-10T05:35:32.911Z,99.99
2018-12-10T05:36:32.937Z,99.99
2018-12-10T05:37:32.963Z,99.99
2018-12-10T05:38:32.991Z,99.99
2018-12-10T05:39:33.016Z,99.99
2018-12-10T05:40:33.044Z,99.99
2018-12-10T05:41:33.069Z,99.99
2018-12-10T05:42:33.097Z,99.99
2018-12-10T05:43:33.122Z,99.99
2018-12-10T05:44:33.151Z,99.99
2018-12-10T05:45:33.175Z,99.99
2018-12-10T05:46:33.202Z,99.99
2018-12-10T05:47:33.229Z,99.99
2018-12-10T05:48:33.256Z,99.99
2018-12-10T05:49:33.304Z,99.99
2018-12-10T05:50:33.307Z,99.99
2018-12-10T05:51:33.337Z,99.99
2018-12-10T05:52:33.361Z,99.99
2018-12-10T05:53:33.386Z,99.99
2018-12-10T05:54:33.414Z,99.99
2018-12-10T05:55:33.441Z,99.99
2018-12-10T05:56:33.466Z,99.99
2018-12-10T05:57:33.492Z,99.99
2018-12-10T05:58:33.518Z,99.99
2018-12-10T05:59:33.545Z,99.99
2018-12-10T06:00:33.573Z,99.99
2018-12-10T06:01:33.600Z,99.99
2018-12-10T06:02:33.624Z,99.99
2018-12-10T06:03:33.652Z,99.99
2018-12-10T06:04:33.678Z,99.99
2018-12-10T06:05:33.703Z,99.99
2018-12-10T06:06:33.730Z,99.99
2018-12-10T06:07:33.756Z,99.99
2018-12-10T06:08:33.783Z,99.99
2018-12-10T06:09:33.808Z,99.99
2018-12-10T06:10:33.841Z,99.99
2018-12-10T06:11:33.862Z,99.99
2018-12-10T06:12:33.889Z,99.99
2018-12-10T06:13:33.913Z,99.99
2018-12-10T06:14:33.940Z,99.99
2018-12-10T06:15:33.967Z,99.99
2018-12-10T06:16:33.993Z,99.99
2018-12-10T06:17:34.079Z,99.99
2018-12-10T06:18:34.044Z,99.99
2018-12-10T06:19:34.072Z,99.99
2018-12-10T06:20:34.100Z,99.99
2018-12-10T06:21:34.124Z,99.99
2018-12-10T06:22:34.148Z,99.99
2018-12-10T06:23:34.176Z,99.99
2018-12-10T06:24:34.204Z,99.99
2018-12-10T06:25:34.227Z,99.99
2018-12-10T06:26:34.254Z,99.99
2018-12-10T06:27:34.280Z,99.99
2018-12-10T06:28:34.305Z,99.99
2018-12-10T06:29:34.332Z,99.99
2018-12-10T06:30:34.358Z,99.99
2018-12-10T06:31:34.384Z,99.99
2018-12-10T06:32:34.409Z,99.99
2018-12-10T06:33:34.435Z,99.99
2018-12-10T06:34:34.463Z,99.99
2018-12-10T06:35:34.487Z,99.99
2018-12-10T06:36:34.513Z,99.99
2018-12-10T06:37:37.679Z,99.99
2018-12-10T06:38:34.564Z,99.99
2018-12-10T06:39:34.603Z,99.99
2018-12-10T06:40:34.617Z,99.99
2018-12-10T06:41:34.643Z,99.99
2018-12-10T06:42:34.667Z,99.99
2018-12-10T06:43:34.693Z,99.99
2018-12-10T06:44:34.720Z,99.99
2018-12-10T06:45:34.746Z,99.99
2018-12-10T06:46:34.773Z,99.99
2018-12-10T06:47:34.797Z,99.99
2018-12-10T06:48:34.823Z,99.99
2018-12-10T06:49:34.848Z,99.99
2018-12-10T06:50:34.874Z,99.99
2018-12-10T06:51:34.901Z,99.99
2018-12-10T06:52:34.929Z,99.99
2018-12-10T06:53:34.952Z,99.99
2018-12-10T06:54:34.979Z,99.99
2018-12-10T06:55:35.005Z,99.99
2018-12-10T06:56:35.031Z,99.99
2018-12-10T06:57:35.055Z,99.99
2018-12-10T06:58:35.082Z,99.99
2018-12-10T06:59:35.108Z,99.99
2018-12-10T07:00:35.135Z,99.99
2018-12-10T07:01:35.160Z,99.99
2018-12-10T07:02:35.186Z,99.99
2018-12-10T07:03:35.563Z,99.99
2018-12-10T07:04:35.237Z,99.99
2018-12-10T07:05:35.263Z,99.99
2018-12-10T07:06:35.288Z,99.99
2018-12-10T07:07:35.381Z,99.99
2018-12-10T07:08:35.391Z,99.99
2018-12-10T07:09:35.381Z,99.99
2018-12-10T07:10:35.393Z,99.99
2018-12-10T07:11:35.425Z,99.99
2018-12-10T07:12:35.451Z,99.99
2018-12-10T07:13:35.494Z,99.99
2018-12-10T07:14:35.502Z,99.99
2018-12-10T07:15:35.523Z,99.99
2018-12-10T07:16:35.551Z,99.99
2018-12-10T07:17:35.576Z,99.99
2018-12-10T07:18:35.603Z,99.99
2018-12-10T07:19:35.629Z,99.99
2018-12-10T07:20:35.654Z,99.99
2018-12-10T07:21:35.679Z,99.99
2018-12-10T07:22:35.705Z,99.99
2018-12-10T07:23:35.733Z,99.99
2018-12-10T07:24:35.758Z,99.99
2018-12-10T07:25:35.783Z,99.99
2018-12-10T07:26:35.809Z,99.99
2018-12-10T07:27:35.853Z,99.99
2018-12-10T07:28:37.832Z,99.99
2018-12-10T07:29:35.889Z,99.99
2018-12-10T07:30:41.399Z,99.99
2018-12-10T07:31:35.942Z,99.99
2018-12-10T07:32:35.969Z,99.99
2018-12-10T07:33:35.994Z,99.99
2018-12-10T07:34:36.020Z,99.99
2018-12-10T07:35:36.046Z,99.99
2018-12-10T07:36:36.092Z,99.99
2018-12-10T07:37:36.098Z,99.99
2018-12-10T07:38:36.124Z,99.99
2018-12-10T07:39:36.152Z,99.99
2018-12-10T07:40:36.179Z,99.99
2018-12-10T07:41:36.206Z,99.99
2018-12-10T07:42:36.233Z,99.99
2018-12-10T07:43:36.256Z,99.99
2018-12-10T07:44:36.283Z,99.99
2018-12-10T07:45:36.309Z,99.99
2018-12-10T07:46:36.335Z,99.99
2018-12-10T07:47:36.362Z,99.99
2018-12-10T07:48:36.392Z,99.99
2018-12-10T07:49:36.416Z,99.99
2018-12-10T07:50:36.442Z,99.99
2018-12-10T07:51:36.468Z,99.99
2018-12-10T07:52:36.495Z,99.99
2018-12-10T07:53:36.520Z,99.99
2018-12-10T07:54:36.547Z,99.99
2018-12-10T07:55:36.575Z,99.99
2018-12-10T07:56:36.601Z,99.99
2018-12-10T07:57:36.626Z,99.99
2018-12-10T07:58:36.654Z,99.99
2018-12-10T07:59:36.680Z,99.99
2018-12-10T08:00:36.709Z,99.99
2018-12-10T08:01:36.733Z,99.99
2018-12-10T08:02:36.761Z,99.99
2018-12-10T08:03:36.788Z,99.99
2018-12-10T08:04:36.815Z,99.99
2018-12-10T08:05:36.846Z,99.99
2018-12-10T08:06:36.869Z,99.99
2018-12-10T08:07:36.894Z,99.99
2018-12-10T08:08:36.922Z,99.99
2018-12-10T08:09:36.948Z,99.99
2018-12-10T08:10:36.977Z,99.99
2018-12-10T08:11:37.002Z,99.99
2018-12-10T08:12:37.029Z,99.99
2018-12-10T08:13:37.055Z,99.99
2018-12-10T08:14:37.083Z,99.99
2018-12-10T08:15:37.110Z,99.99
2018-12-10T08:16:37.138Z,99.99
2018-12-10T08:17:37.166Z,99.99
2018-12-10T08:18:37.191Z,99.99
2018-12-10T08:19:37.220Z,99.99
2018-12-10T08:20:37.247Z,98.32
2018-12-10T08:21:37.272Z,95.79
2018-12-10T08:22:37.306Z,92.97
2018-12-10T08:23:37.330Z,93.22
2018-12-10T08:24:37.358Z,96.94
2018-12-10T08:25:37.384Z,99.84
2018-12-10T08:26:37.498Z,99.99
2018-12-10T08:27:37.442Z,99.99
2018-12-10T08:28:37.473Z,99.99
2018-12-10T08:29:37.543Z,99.99
2018-12-10T08:30:37.525Z,99.99
2018-12-10T08:31:37.555Z,99.99
2018-12-10T08:32:37.583Z,99.99
2018-12-10T08:33:37.613Z,99.99
2018-12-10T08:34:41.329Z,99.99
2018-12-10T08:35:40.920Z,99.99
2018-12-10T08:36:37.862Z,99.99
2018-12-10T08:37:37.724Z,99.99
2018-12-10T08:38:37.753Z,99.99
2018-12-10T08:39:37.782Z,99.99
2018-12-10T08:40:37.810Z,99.99
2018-12-10T08:41:37.838Z,99.99
2018-12-10T08:42:37.867Z,99.99
2018-12-10T08:43:37.896Z,99.99
2018-12-10T08:44:37.923Z,99.99
2018-12-10T08:45:37.952Z,96.03
2018-12-10T08:46:37.981Z,95.08
2018-12-10T08:47:38.010Z,95.37
2018-12-10T08:48:38.037Z,97.89
2018-12-10T08:49:38.065Z,95.98
2018-12-10T08:50:38.095Z,94.32
2018-12-10T08:51:38.125Z,94.79
2018-12-10T08:52:38.154Z,92.11
2018-12-10T08:53:38.182Z,85.55
2018-12-10T08:54:38.211Z,83.15
2018-12-10T08:55:38.241Z,80.30
2018-12-10T08:56:38.273Z,76.65
2018-12-10T08:57:38.301Z,74.13
2018-12-10T08:58:38.335Z,72.75
2018-12-10T08:59:38.363Z,71.37
2018-12-10T09:00:38.395Z,71.15
2018-12-10T09:01:38.425Z,72.30
2018-12-10T09:02:38.457Z,73.72
2018-12-10T09:03:38.488Z,76.90
2018-12-10T09:04:38.521Z,79.65
2018-12-10T09:05:38.551Z,84.39
2018-12-10T09:06:38.583Z,87.26
2018-12-10T09:07:38.616Z,90.55
2018-12-10T09:08:38.649Z,91.94
2018-12-10T09:09:38.679Z,93.65
2018-12-10T09:10:38.711Z,95.51
2018-12-10T09:11:38.744Z,93.93
2018-12-10T09:12:46.773Z,87.34
2018-12-10T09:13:38.806Z,83.98
2018-12-10T09:14:38.838Z,79.37
2018-12-10T09:15:38.869Z,76.44
2018-12-10T09:16:38.906Z,74.23
2018-12-10T09:17:38.935Z,71.34
2018-12-10T09:18:38.966Z,72.67
2018-12-10T09:19:38.998Z,72.53
2018-12-10T09:20:39.033Z,71.56
2018-12-10T09:21:39.064Z,74.57
2018-12-10T09:22:39.097Z,79.12
2018-12-10T09:23:39.133Z,82.43
2018-12-10T09:24:39.165Z,84.69
2018-12-10T09:25:39.197Z,87.21
2018-12-10T09:26:39.230Z,90.41
2018-12-10T09:27:39.269Z,92.41
2018-12-10T09:28:39.296Z,93.51
2018-12-10T09:29:39.426Z,93.22
2018-12-10T09:30:39.362Z,93.27
2018-12-10T09:31:39.393Z,95.94
2018-12-10T09:32:39.425Z,96.03
2018-12-10T09:33:39.458Z,96.51
2018-12-10T09:34:39.488Z,96.36
2018-12-10T09:35:39.520Z,97.41
2018-12-10T09:36:39.551Z,97.31
2018-12-10T09:37:39.582Z,98.08
2018-12-10T09:38:39.613Z,99.99
2018-12-10T09:39:39.648Z,99.98
2018-12-10T09:40:39.675Z,99.88
2018-12-10T09:41:39.705Z,99.79
2018-12-10T09:42:39.736Z,99.99
2018-12-10T09:43:39.765Z,99.99
2018-12-10T09:44:39.801Z,99.99
2018-12-10T09:45:39.828Z,98.65
2018-12-10T09:46:39.856Z,98.46
2018-12-10T09:47:39.886Z,99.99
2018-12-10T09:48:39.917Z,99.99
2018-12-10T09:49:39.946Z,99.99
2018-12-10T09:50:39.978Z,99.99
2018-12-10T09:51:40.005Z,99.98
2018-12-10T09:52:40.035Z,99.99
2018-12-10T09:53:40.064Z,99.99
2018-12-10T09:54:40.097Z,99.99
2018-12-10T09:55:40.124Z,99.99
2018-12-10T09:56:40.153Z,99.99
2018-12-10T09:57:40.182Z,99.99
2018-12-10T09:58:40.211Z,99.99
2018-12-10T09:59:40.240Z,99.99
2018-12-10T10:00:40.270Z,99.99
2018-12-10T10:01:40.299Z,99.99
2018-12-10T10:02:40.327Z,99.99
2018-12-10T10:03:40.357Z,99.99
2018-12-10T10:04:40.385Z,99.99
2018-12-10T10:05:40.413Z,99.99
2018-12-10T10:06:40.442Z,99.99
2018-12-10T10:07:40.471Z,99.99
2018-12-10T10:08:40.502Z,99.99
2018-12-10T10:09:40.528Z,99.99
2018-12-10T10:10:40.557Z,99.99
2018-12-10T10:11:40.588Z,99.99
2018-12-10T10:12:40.617Z,99.99
2018-12-10T10:13:40.643Z,99.99
2018-12-10T10:14:40.673Z,99.99
2018-12-10T10:15:40.701Z,99.99
2018-12-10T10:16:40.729Z,99.99
2018-12-10T10:17:40.757Z,99.99
2018-12-10T10:18:40.786Z,99.99
2018-12-10T10:19:40.817Z,99.99
2018-12-10T10:20:40.844Z,99.99
2018-12-10T10:21:40.871Z,99.99
2018-12-10T10:22:40.900Z,99.99
2018-12-10T10:23:40.932Z,99.99
2018-12-10T10:24:40.957Z,99.99
2018-12-10T10:25:40.985Z,99.99
2018-12-10T10:26:41.014Z,99.99
2018-12-10T10:27:41.041Z,99.99
2018-12-10T10:28:41.070Z,99.99
2018-12-10T10:29:41.100Z,99.99
2018-12-10T10:30:43.906Z,99.99
2018-12-10T10:31:41.155Z,99.99
2018-12-10T10:32:41.184Z,99.99
2018-12-10T10:33:41.210Z,99.99
2018-12-10T10:34:41.245Z,99.99
2018-12-10T10:35:41.268Z,99.99
2018-12-10T10:36:41.295Z,99.99
2018-12-10T10:37:41.327Z,99.99
2018-12-10T10:38:41.353Z,99.99
2018-12-10T10:39:41.382Z,99.99
2018-12-10T10:40:41.410Z,99.99
2018-12-10T10:41:41.438Z,99.99
2018-12-10T10:42:41.469Z,99.99
2018-12-10T10:43:44.204Z,99.99
2018-12-10T10:44:41.538Z,99.88
2018-12-10T10:45:41.551Z,99.99
2018-12-10T10:46:41.623Z,99.99
2018-12-10T10:47:41.609Z,99.99
2018-12-10T10:48:41.638Z,99.99
2018-12-10T10:49:41.705Z,99.88
2018-12-10T10:50:41.696Z,99.79
2018-12-10T10:51:41.722Z,99.88
2018-12-10T10:52:41.752Z,99.45
2018-12-10T10:53:41.781Z,98.83
2018-12-10T10:54:41.811Z,98.88
2018-12-10T10:55:41.835Z,99.99
2018-12-10T10:56:41.865Z,99.99
2018-12-10T10:57:41.891Z,99.99
2018-12-10T10:58:41.919Z,98.55
2018-12-10T10:59:41.949Z,99.26
2018-12-10T11:00:41.980Z,99.12
2018-12-10T11:01:42.006Z,99.98
2018-12-10T11:02:42.034Z,99.99
2018-12-10T11:03:42.063Z,99.12
2018-12-10T11:04:42.091Z,99.99
2018-12-10T11:05:42.118Z,99.99
2018-12-10T11:06:42.147Z,99.99
2018-12-10T11:07:42.175Z,99.69
2018-12-10T11:08:42.204Z,99.50
2018-12-10T11:09:42.230Z,99.99
2018-12-10T11:10:42.259Z,99.99
2018-12-10T11:11:42.287Z,99.99
2018-12-10T11:12:42.329Z,98.32
2018-12-10T11:13:42.343Z,97.93
2018-12-10T11:14:42.373Z,98.50
2018-12-10T11:15:42.401Z,97.65
2018-12-10T11:16:42.448Z,96.51
2018-12-10T11:17:42.456Z,95.75
2018-12-10T11:18:42.486Z,95.94
2018-12-10T11:19:42.514Z,96.70
2018-12-10T11:20:42.544Z,97.17
2018-12-10T11:21:42.570Z,97.65
2018-12-10T11:22:42.605Z,97.46
2018-12-10T11:23:42.628Z,97.27
2018-12-10T11:24:42.657Z,97.79
2018-12-10T11:25:42.685Z,96.26
2018-12-10T11:26:42.714Z,97.08
2018-12-10T11:27:42.742Z,97.46
2018-12-10T11:28:42.772Z,98.69
2018-12-10T11:29:42.800Z,99.99
2018-12-10T11:30:42.830Z,99.84
2018-12-10T11:31:42.859Z,98.79
2018-12-10T11:32:42.888Z,98.32
2018-12-10T11:33:42.916Z,98.41
2018-12-10T11:34:42.943Z,98.88
2018-12-10T11:35:42.973Z,99.99
2018-12-10T11:36:43.002Z,99.99
2018-12-10T11:37:43.030Z,99.99
2018-12-10T11:38:43.057Z,99.99
2018-12-10T11:39:43.087Z,99.69
2018-12-10T11:40:43.117Z,99.99
2018-12-10T11:41:43.144Z,99.99
2018-12-10T11:42:43.173Z,99.99
2018-12-10T11:43:43.214Z,99.99
2018-12-10T11:44:43.229Z,99.99
2018-12-10T11:45:43.260Z,99.99
2018-12-10T11:46:43.286Z,99.99
2018-12-10T11:47:43.316Z,99.99
2018-12-10T11:48:43.344Z,99.99
2018-12-10T11:49:43.373Z,99.99
2018-12-10T11:50:43.401Z,99.99
2018-12-10T11:51:43.434Z,99.99
2018-12-10T11:52:43.459Z,99.99
2018-12-10T11:53:43.489Z,99.99
2018-12-10T11:54:43.516Z,99.99
2018-12-10T11:55:43.545Z,99.99
2018-12-10T11:56:43.573Z,99.99
2018-12-10T11:57:43.601Z,99.99
2018-12-10T11:58:43.630Z,99.99
2018-12-10T11:59:43.657Z,99.99
2018-12-10T12:00:43.686Z,99.99
2018-12-10T12:01:43.718Z,99.99
2018-12-10T12:02:43.743Z,99.99
2018-12-10T12:03:43.771Z,99.99
2018-12-10T12:04:43.801Z,99.99
2018-12-10T12:05:43.829Z,99.99
2018-12-10T12:06:43.857Z,99.99
2018-12-10T12:07:43.885Z,99.99
2018-12-10T12:08:43.914Z,99.99
2018-12-10T12:09:43.941Z,99.99
2018-12-10T12:10:43.969Z,99.99
2018-12-10T12:11:44.005Z,99.99
2018-12-10T12:12:44.028Z,99.99
2018-12-10T12:13:44.594Z,99.99
2018-12-10T12:14:44.083Z,99.99
2018-12-10T12:15:44.112Z,99.99
2018-12-10T12:16:44.142Z,99.99
2018-12-10T12:17:44.170Z,99.99
2018-12-10T12:18:44.199Z,99.99
2018-12-10T12:19:44.233Z,99.99
2018-12-10T12:20:44.255Z,99.99
2018-12-10T12:21:44.282Z,99.99
2018-12-10T12:22:44.361Z,99.99
2018-12-10T12:23:44.341Z,99.99
2018-12-10T12:24:44.368Z,99.99
2018-12-10T12:25:44.396Z,99.99
2018-12-10T12:26:45.589Z,99.99
2018-12-10T12:27:44.453Z,99.99
2018-12-10T12:28:44.482Z,99.99
2018-12-10T12:29:44.514Z,99.99
2018-12-10T12:30:44.538Z,99.99
2018-12-10T12:31:44.566Z,99.99
2018-12-10T12:32:44.596Z,99.99
2018-12-10T12:33:44.624Z,99.99
2018-12-10T12:34:44.652Z,99.99
2018-12-10T12:35:44.680Z,99.99
2018-12-10T12:36:44.710Z,99.99
2018-12-10T12:37:44.737Z,99.99
2018-12-10T12:38:44.765Z,99.99
2018-12-10T12:39:44.795Z,99.99
2018-12-10T12:40:44.822Z,99.99
2018-12-10T12:41:44.851Z,99.99
2018-12-10T12:42:44.880Z,99.99
2018-12-10T12:43:44.908Z,99.99
2018-12-10T12:44:44.936Z,99.99
2018-12-10T12:45:45.015Z,99.99
2018-12-10T12:46:44.991Z,99.99
2018-12-10T12:47:45.019Z,99.99
2018-12-10T12:48:45.047Z,99.99
2018-12-10T12:49:45.074Z,99.99
2018-12-10T12:50:45.105Z,99.99
2018-12-10T12:51:45.130Z,99.99
2018-12-10T12:52:45.158Z,99.99